Terminal Aerodrome Forecast
Issued by NWS

Home | Current Version | Previous Version | Text Only | Print | Product List | Glossary On
Versions: 1 2 3 4 5 6 7 8 9 10 11 12 13 14 15 16 17 18 19
000
FTUS43 KDLH 250538
TAFBRD
TAF
KBRD 250538Z 2506/2606 05005KT P6SM -RA OVC070
     FM250800 28005KT P6SM OVC050
     FM251100 33006KT P6SM OVC004
     FM251500 36006KT P6SM BKN050
     FM252100 01009KT P6SM VCSH OVC015
     FM260000 02011G19KT 3SM RA OVC010=

USA.gov is the U.S. government's official web portal to all federal, state and local government web resources and services.